Time;durP1;ratioP1;P1;durP2;ratioP2;P2;SDS_P1;SDS_P2;PMS_P1;PMS_P2;Temp;Humidity;BMP_temperature;BMP_pressure;BME280_temperature;BME280_humidity;BME280_pressure;Samples;Min_cycle;Max_cycle;Signal;HPM_P1;HPM_P2
2023/04/03 00:02:10;;;;;;;2.40;2.20;;;8.60;48.40;;;;;;5095732;28;20504;-85
2023/04/03 00:04:37;;;;;;;5.20;3.00;;;8.40;48.00;;;;;;5106673;28;21071;-84
2023/04/03 00:07:05;;;;;;;5.43;2.27;;;8.40;48.40;;;;;;5064559;28;21232;-86
2023/04/03 00:09:32;;;;;;;3.30;3.00;;;8.20;48.90;;;;;;5059753;28;20491;-86
2023/04/03 00:11:59;;;;;;;6.30;2.77;;;8.10;48.40;;;;;;5063107;28;20479;-87
2023/04/03 00:14:27;;;;;;;4.13;2.80;;;7.90;48.50;;;;;;5108487;28;20450;-87
2023/04/03 00:16:54;;;;;;;2.57;2.30;;;8.00;48.40;;;;;;5065217;28;20637;-87
2023/04/03 00:19:21;;;;;;;2.83;2.63;;;7.90;49.10;;;;;;5066241;28;20503;-86
2023/04/03 00:21:48;;;;;;;3.50;2.90;;;7.80;49.40;;;;;;5070414;27;20493;-89
2023/04/03 00:24:16;;;;;;;3.57;3.00;;;7.80;48.80;;;;;;5068371;28;20984;-90
2023/04/03 00:26:43;;;;;;;6.07;3.27;;;7.60;49.20;;;;;;5118321;27;20466;-87
2023/04/03 00:29:10;;;;;;;2.00;1.80;;;7.70;49.80;;;;;;5066887;28;20609;-87
2023/04/03 00:31:38;;;;;;;4.67;3.00;;;7.70;49.50;;;;;;5065080;28;20444;-90
2023/04/03 00:34:05;;;;;;;4.00;2.50;;;7.70;49.60;;;;;;5107954;28;20969;-86
2023/04/03 00:36:32;;;;;;;2.47;2.27;;;7.70;49.40;;;;;;5098129;27;20497;-84
2023/04/03 00:38:59;;;;;;;5.00;2.63;;;7.50;49.50;;;;;;5070701;28;20902;-89
2023/04/03 00:41:28;;;;;;;2.67;2.37;;;7.10;50.60;;;;;;5067884;28;20443;-88
2023/04/03 00:43:55;;;;;;;3.80;2.67;;;7.20;50.60;;;;;;5067387;27;20872;-87
2023/04/03 00:46:22;;;;;;;2.37;2.17;;;7.40;50.60;;;;;;5092681;28;20472;-85
2023/04/03 00:48:50;;;;;;;3.53;2.63;;;7.50;50.60;;;;;;5124702;27;20447;-84
2023/04/03 00:51:22;;;;;;;3.40;2.70;;;7.60;50.90;;;;;;5065520;28;20447;-89
2023/04/03 00:53:55;;;;;;;6.07;2.50;;;7.80;50.40;;;;;;5101654;27;21677;-90
2023/04/03 00:56:25;;;;;;;5.63;3.10;;;8.00;50.30;;;;;;5091528;28;20991;-84
2023/04/03 00:58:58;;;;;;;5.17;2.60;;;8.00;49.40;;;;;;5092350;28;20502;-89
2023/04/03 01:01:27;;;;;;;2.40;2.20;;;8.00;49.30;;;;;;5113599;28;20443;-86
2023/04/03 01:03:55;;;;;;;3.40;2.70;;;7.90;48.90;;;;;;5101694;28;20470;-87
2023/04/03 01:06:28;;;;;;;5.43;2.40;;;8.00;49.10;;;;;;5100163;28;20454;-86
2023/04/03 01:08:59;;;;;;;3.47;2.37;;;7.80;49.10;;;;;;5101592;28;20466;-87
2023/04/03 01:11:26;;;;;;;3.03;2.57;;;7.60;49.70;;;;;;5091569;28;20543;-88
2023/04/03 01:13:55;;;;;;;4.50;4.10;;;7.50;50.30;;;;;;5063110;27;20453;-83
2023/04/03 01:16:22;;;;;;;3.90;2.60;;;7.50;51.30;;;;;;5065271;28;20515;-88
2023/04/03 01:18:50;;;;;;;13.30;4.83;;;7.50;51.50;;;;;;5125226;27;20483;-88
2023/04/03 01:21:50;;;;;;;2.83;2.63;;;7.70;51.40;;;;;;5099709;28;20455;-87
2023/04/03 01:24:28;;;;;;;2.30;2.10;;;8.00;50.70;;;;;;5061424;28;20446;-87
2023/04/03 01:26:56;;;;;;;2.90;2.60;;;8.10;50.30;;;;;;5092938;28;20488;-87
2023/04/03 01:29:24;;;;;;;1.97;1.87;;;8.20;50.60;;;;;;5063281;28;20495;-86
2023/04/03 01:31:55;;;;;;;3.57;2.50;;;8.20;50.50;;;;;;5056994;28;20447;-87
2023/04/03 01:34:24;;;;;;;2.57;2.23;;;8.30;50.50;;;;;;5088520;28;20497;-87
2023/04/03 01:36:53;;;;;;;2.73;2.30;;;8.30;50.20;;;;;;5066149;27;20475;-87
2023/04/03 01:39:21;;;;;;;3.60;2.17;;;8.30;50.50;;;;;;5090753;28;20471;-85
2023/04/03 01:41:49;;;;;;;3.00;2.67;;;8.40;50.90;;;;;;5060754;28;20471;-88
2023/04/03 01:44:23;;;;;;;3.77;2.20;;;8.50;51.00;;;;;;5070484;28;20461;-85
2023/04/03 01:46:50;;;;;;;2.83;2.13;;;8.60;51.20;;;;;;5111305;27;20458;-89
2023/04/03 01:49:18;;;;;;;2.63;2.37;;;8.70;50.90;;;;;;5061909;28;20467;-88
2023/04/03 01:51:46;;;;;;;3.27;2.10;;;8.70;50.80;;;;;;5062236;27;20448;-88
2023/04/03 01:54:13;;;;;;;2.17;2.07;;;8.70;50.90;;;;;;5064090;28;20524;-87
2023/04/03 01:56:40;;;;;;;2.97;2.03;;;8.70;50.30;;;;;;5107181;27;20448;-88
2023/04/03 01:59:09;;;;;;;3.77;2.30;;;8.70;50.30;;;;;;5098929;28;20479;-85
2023/04/03 02:01:36;;;;;;;7.20;2.57;;;8.70;50.80;;;;;;5093119;27;20463;-86
2023/04/03 02:04:03;;;;;;;3.50;2.70;;;8.80;50.90;;;;;;5062136;28;20482;-88
2023/04/03 02:06:32;;;;;;;4.47;2.57;;;8.70;50.90;;;;;;5065787;28;20551;-87
2023/04/03 02:08:59;;;;;;;4.67;2.73;;;8.70;50.90;;;;;;5056791;28;20544;-87
2023/04/03 02:11:26;;;;;;;3.87;2.20;;;8.70;51.60;;;;;;5061790;28;20475;-89
2023/04/03 02:13:53;;;;;;;3.80;3.07;;;8.80;51.80;;;;;;5069761;28;20460;-85
2023/04/03 02:16:20;;;;;;;3.47;2.53;;;8.80;51.50;;;;;;5095667;28;20456;-86
2023/04/03 02:18:50;;;;;;;4.70;3.40;;;8.80;51.80;;;;;;5063365;28;20507;-85
2023/04/03 02:21:17;;;;;;;8.80;3.03;;;8.80;52.10;;;;;;5105984;28;20447;-86
2023/04/03 02:23:46;;;;;;;4.47;2.90;;;8.70;51.60;;;;;;5091795;28;20518;-86
2023/04/03 02:26:16;;;;;;;3.03;2.63;;;8.70;52.10;;;;;;5096062;28;20504;-89
2023/04/03 02:28:45;;;;;;;7.03;3.50;;;8.80;51.80;;;;;;5060203;27;20468;-87
2023/04/03 02:31:13;;;;;;;5.27;3.40;;;8.90;51.90;;;;;;5056104;28;20447;-86
2023/04/03 02:33:42;;;;;;;4.53;2.87;;;8.90;51.70;;;;;;5090656;28;20443;-90
2023/04/03 02:36:11;;;;;;;3.10;2.70;;;9.00;51.90;;;;;;5085225;28;20440;-89
2023/04/03 02:38:41;;;;;;;4.50;3.03;;;9.00;51.80;;;;;;5057934;27;20554;-88
2023/04/03 02:41:12;;;;;;;4.60;2.80;;;9.00;51.80;;;;;;5062260;28;20448;-87
2023/04/03 02:43:39;;;;;;;5.60;3.60;;;9.00;52.40;;;;;;5056934;28;20661;-85
2023/04/03 02:46:07;;;;;;;3.33;3.03;;;9.10;52.70;;;;;;5070208;28;20455;-84
2023/04/03 02:48:35;;;;;;;3.77;3.03;;;8.90;53.10;;;;;;5086779;28;20521;-86
2023/04/03 02:51:02;;;;;;;3.63;2.73;;;8.80;53.50;;;;;;5061965;28;20450;-87
2023/04/03 02:53:29;;;;;;;3.97;3.10;;;8.90;53.70;;;;;;5092736;28;20466;-87
2023/04/03 02:55:57;;;;;;;2.73;2.53;;;8.90;53.50;;;;;;5064087;28;20466;-86
2023/04/03 02:58:26;;;;;;;4.33;2.83;;;9.00;53.50;;;;;;5063396;28;22120;-87
2023/04/03 03:00:55;;;;;;;3.43;3.13;;;9.00;53.40;;;;;;5103686;28;20451;-88
2023/04/03 03:03:22;;;;;;;4.70;3.63;;;9.00;53.50;;;;;;5059216;28;20809;-88
2023/04/03 03:05:50;;;;;;;3.93;3.13;;;9.10;53.50;;;;;;5095528;28;20455;-89
2023/04/03 03:08:19;;;;;;;3.93;2.87;;;9.00;53.60;;;;;;5091874;28;20463;-87
2023/04/03 03:10:47;;;;;;;10.33;3.50;;;9.00;53.60;;;;;;5091548;28;20468;-89
2023/04/03 03:13:14;;;;;;;4.37;2.80;;;9.10;53.30;;;;;;5061599;28;20833;-87
2023/04/03 03:15:42;;;;;;;2.97;2.77;;;9.10;53.00;;;;;;5121912;27;20448;-87
2023/04/03 03:18:10;;;;;;;4.07;3.60;;;9.00;53.10;;;;;;5061521;28;20501;-85
2023/04/03 03:20:37;;;;;;;7.97;4.20;;;9.00;53.20;;;;;;5084283;28;20456;-85
2023/04/03 03:23:04;;;;;;;6.60;3.77;;;9.10;53.10;;;;;;5093019;28;20451;-87
2023/04/03 03:25:31;;;;;;;6.83;3.40;;;9.10;52.70;;;;;;5090868;28;20444;-87
2023/04/03 03:27:58;;;;;;;10.77;6.53;;;9.00;52.30;;;;;;5061593;27;20484;-85
2023/04/03 03:30:25;;;;;;;8.87;4.90;;;8.90;52.00;;;;;;5058082;28;20655;-88
2023/04/03 03:32:54;;;;;;;5.07;4.13;;;9.00;52.10;;;;;;5095175;28;20487;-88
2023/04/03 03:35:21;;;;;;;6.10;4.27;;;9.00;52.20;;;;;;5061700;28;20450;-85
2023/04/03 03:37:48;;;;;;;4.57;3.63;;;9.00;51.70;;;;;;5052521;27;20470;-86
2023/04/03 03:40:15;;;;;;;4.10;3.67;;;8.90;51.50;;;;;;5090909;28;20455;-86
2023/04/03 03:42:43;;;;;;;4.50;3.30;;;8.90;51.40;;;;;;5068496;28;20474;-86
2023/04/03 03:45:11;;;;;;;7.43;6.23;;;8.90;51.90;;;;;;5067916;28;20969;-85
2023/04/03 03:47:38;;;;;;;8.27;6.77;;;8.90;51.80;;;;;;5094630;28;20512;-87
2023/04/03 03:50:08;;;;;;;5.40;4.87;;;9.00;52.00;;;;;;5055131;28;21121;-84
2023/04/03 03:52:35;;;;;;;4.87;4.20;;;9.00;52.40;;;;;;5093226;28;21428;-86
2023/04/03 03:55:02;;;;;;;7.03;4.87;;;9.10;52.40;;;;;;5076234;28;20443;-87
2023/04/03 03:57:30;;;;;;;4.67;3.97;;;9.10;52.50;;;;;;5062815;28;20532;-84
2023/04/03 03:59:57;;;;;;;4.80;4.30;;;9.00;52.50;;;;;;5085440;28;20463;-86
2023/04/03 04:02:24;;;;;;;5.57;5.03;;;8.90;53.10;;;;;;5068548;28;20446;-86
2023/04/03 04:04:53;;;;;;;7.70;4.90;;;9.00;53.20;;;;;;5051794;28;20970;-85
2023/04/03 04:07:21;;;;;;;4.20;3.80;;;9.00;52.70;;;;;;5096841;27;20505;-86
2023/04/03 04:09:49;;;;;;;5.73;3.90;;;9.10;53.20;;;;;;5052238;28;20458;-86
2023/04/03 04:12:16;;;;;;;4.50;4.10;;;9.00;52.90;;;;;;5100501;27;20553;-86
2023/04/03 04:14:46;;;;;;;7.40;3.70;;;8.90;53.00;;;;;;5078707;28;20444;-84
2023/04/03 04:17:14;;;;;;;4.50;4.10;;;8.20;54.00;;;;;;5099022;28;20439;-84
2023/04/03 04:19:41;;;;;;;5.00;3.47;;;7.90;55.30;;;;;;5087204;28;20475;-84
2023/04/03 04:22:09;;;;;;;6.17;3.67;;;7.90;55.50;;;;;;5064317;28;20451;-84
2023/04/03 04:24:37;;;;;;;7.10;3.70;;;7.90;55.20;;;;;;5065732;28;20948;-86
2023/04/03 04:27:05;;;;;;;5.20;4.77;;;8.00;55.00;;;;;;5055430;28;20438;-84
2023/04/03 04:29:35;;;;;;;3.83;3.23;;;7.80;54.60;;;;;;5060722;28;20632;-86
2023/04/03 04:32:03;;;;;;;11.23;4.10;;;7.90;55.20;;;;;;5061777;27;20515;-85
2023/04/03 04:34:31;;;;;;;4.20;3.80;;;7.90;55.00;;;;;;5074881;28;20826;-85
2023/04/03 04:36:59;;;;;;;6.17;3.83;;;7.80;54.70;;;;;;5076793;27;20478;-86
2023/04/03 04:39:30;;;;;;;6.07;3.77;;;7.90;54.60;;;;;;5075906;28;20478;-87
2023/04/03 04:42:00;;;;;;;4.10;3.30;;;8.10;53.90;;;;;;5089939;27;20446;-85
2023/04/03 04:44:30;;;;;;;3.43;3.13;;;8.00;54.50;;;;;;5056916;28;20507;-85
2023/04/03 04:46:57;;;;;;;6.20;3.60;;;8.10;53.50;;;;;;5055652;28;21033;-83
2023/04/03 04:49:24;;;;;;;4.47;4.03;;;8.10;53.40;;;;;;5051743;28;20918;-86
2023/04/03 04:51:51;;;;;;;4.23;2.90;;;8.00;52.90;;;;;;5056532;28;20450;-86
2023/04/03 04:54:21;;;;;;;7.37;4.00;;;7.60;53.60;;;;;;5080472;28;20496;-85
2023/04/03 04:56:49;;;;;;;4.57;3.53;;;7.30;53.80;;;;;;5068759;27;20458;-86
2023/04/03 04:59:17;;;;;;;6.37;4.70;;;7.30;54.00;;;;;;5071260;28;20544;-85
2023/04/03 05:01:44;;;;;;;4.27;3.10;;;7.60;53.80;;;;;;5071097;28;20452;-85
2023/04/03 05:04:16;;;;;;;4.43;3.00;;;7.60;53.40;;;;;;5077965;28;20523;-86
2023/04/03 05:06:45;;;;;;;3.33;3.03;;;7.40;53.10;;;;;;5052923;27;20495;-86
2023/04/03 05:09:17;;;;;;;3.77;3.10;;;7.30;53.30;;;;;;5077565;28;20550;-87
2023/04/03 05:11:45;;;;;;;9.37;3.47;;;7.50;53.80;;;;;;5052220;28;20447;-87
2023/04/03 05:14:16;;;;;;;3.63;3.33;;;7.50;52.90;;;;;;5102097;28;20535;-85
2023/04/03 05:16:43;;;;;;;4.27;3.37;;;7.50;52.50;;;;;;5055523;28;21305;-88
2023/04/03 05:19:10;;;;;;;6.80;3.63;;;7.60;52.70;;;;;;5057462;28;21118;-88
2023/04/03 05:21:38;;;;;;;3.57;3.27;;;7.60;51.90;;;;;;5053020;28;20436;-88
2023/04/03 05:24:11;;;;;;;3.73;3.20;;;7.70;52.20;;;;;;5079589;28;20443;-86
2023/04/03 05:26:41;;;;;;;5.07;3.80;;;7.80;52.00;;;;;;5072022;28;20466;-89
2023/04/03 05:29:09;;;;;;;4.47;3.53;;;7.80;51.90;;;;;;5069818;28;21234;-89
2023/04/03 05:31:37;;;;;;;13.73;6.97;;;7.80;51.90;;;;;;5066687;28;20439;-88
2023/04/03 05:34:05;;;;;;;21.37;10.33;;;7.50;51.80;;;;;;5052878;28;20530;-88
2023/04/03 05:36:35;;;;;;;4.53;4.13;;;7.50;52.90;;;;;;5070089;28;20446;-88
2023/04/03 05:39:06;;;;;;;5.40;3.47;;;7.60;52.00;;;;;;5078022;28;21115;-89
2023/04/03 05:41:36;;;;;;;3.80;3.50;;;7.60;51.30;;;;;;5056103;28;20440;-86
2023/04/03 05:44:04;;;;;;;51.73;17.77;;;7.70;51.50;;;;;;5058202;28;20439;-87
2023/04/03 05:46:31;;;;;;;247.77;88.60;;;7.70;51.20;;;;;;5094656;28;20513;-85
2023/04/03 05:49:03;;;;;;;30.10;15.73;;;7.80;50.50;;;;;;5100591;28;20470;-86
2023/04/03 05:51:35;;;;;;;50.77;27.23;;;7.70;51.10;;;;;;5076379;28;20479;-87
2023/04/03 05:54:14;;;;;;;11.00;7.00;;;7.70;50.80;;;;;;5062893;28;20478;-84
2023/04/03 05:56:42;;;;;;;10.17;4.50;;;7.60;51.10;;;;;;5053393;28;20569;-85
2023/04/03 05:59:09;;;;;;;8.30;7.50;;;7.40;50.70;;;;;;5051093;28;20474;-84
2023/04/03 06:01:37;;;;;;;6.77;4.83;;;7.20;51.40;;;;;;5086151;28;20452;-87
2023/04/03 06:04:08;;;;;;;5.23;4.73;;;7.20;51.70;;;;;;5050162;28;20979;-84
2023/04/03 06:06:47;;;;;;;10.93;6.60;;;7.10;51.80;;;;;;5052985;28;20462;-86
2023/04/03 06:09:15;;;;;;;4.10;3.43;;;7.20;51.60;;;;;;5068644;28;20471;-85
2023/04/03 06:11:43;;;;;;;4.40;3.70;;;7.10;51.20;;;;;;5049366;28;20436;-86
2023/04/03 06:14:10;;;;;;;5.70;3.03;;;6.80;51.60;;;;;;5044456;28;20452;-86
2023/04/03 06:16:38;;;;;;;5.27;3.80;;;6.70;52.00;;;;;;5078705;28;20819;-86
2023/04/03 06:19:09;;;;;;;7.90;2.93;;;6.50;52.30;;;;;;5087725;27;20472;-86
2023/04/03 06:21:40;;;;;;;6.23;3.10;;;6.50;52.70;;;;;;5090758;28;20463;-84
2023/04/03 06:24:08;;;;;;;4.20;3.33;;;6.70;52.30;;;;;;5064332;28;20470;-84
2023/04/03 06:26:36;;;;;;;5.73;5.10;;;6.80;52.50;;;;;;5105682;27;20439;-85
2023/04/03 06:29:03;;;;;;;6.57;3.73;;;7.10;51.90;;;;;;5050419;28;20515;-84
2023/04/03 06:31:30;;;;;;;4.53;3.33;;;7.20;51.40;;;;;;5076446;28;21422;-84
2023/04/03 06:33:57;;;;;;;5.23;3.70;;;7.40;51.00;;;;;;5083958;28;20842;-85
2023/04/03 06:36:25;;;;;;;2.97;2.67;;;7.30;51.10;;;;;;5068238;28;20948;-85
2023/04/03 06:38:52;;;;;;;5.67;3.20;;;7.30;50.90;;;;;;5082734;28;20494;-86
2023/04/03 06:41:20;;;;;;;5.10;4.43;;;7.00;51.80;;;;;;5052008;28;20441;-84
2023/04/03 06:43:47;;;;;;;5.30;3.37;;;7.10;51.90;;;;;;5048626;27;20464;-86
2023/04/03 06:46:18;;;;;;;3.77;3.20;;;7.20;51.40;;;;;;5047889;28;20478;-85
2023/04/03 06:48:46;;;;;;;6.27;3.90;;;7.10;51.20;;;;;;5076142;28;20563;-86
2023/04/03 06:51:19;;;;;;;5.77;3.33;;;7.20;51.20;;;;;;5052831;28;20451;-85
2023/04/03 06:53:48;;;;;;;5.90;3.63;;;7.30;51.00;;;;;;5054591;27;20436;-85
2023/04/03 06:56:16;;;;;;;4.93;4.20;;;7.10;51.00;;;;;;5110660;27;20452;-86
2023/04/03 06:58:44;;;;;;;5.30;3.80;;;7.00;51.20;;;;;;5096191;27;20537;-85
2023/04/03 07:01:14;;;;;;;3.80;3.27;;;7.10;50.90;;;;;;5094726;28;20451;-85
2023/04/03 07:03:41;;;;;;;4.40;3.07;;;7.10;50.90;;;;;;5053553;28;20448;-85
2023/04/03 07:06:10;;;;;;;3.50;3.10;;;7.20;50.60;;;;;;5048820;28;20865;-83
2023/04/03 07:08:39;;;;;;;3.97;3.17;;;6.90;51.30;;;;;;5078392;28;20558;-86
2023/04/03 07:11:08;;;;;;;4.30;3.30;;;6.90;51.90;;;;;;5093677;28;20459;-85
2023/04/03 07:13:36;;;;;;;3.43;3.13;;;7.10;51.50;;;;;;5067324;28;20447;-84
2023/04/03 07:16:04;;;;;;;4.90;4.03;;;7.20;50.70;;;;;;5075367;28;20565;-86
2023/04/03 07:18:32;;;;;;;3.67;3.37;;;7.50;50.80;;;;;;5058759;28;20546;-85
2023/04/03 07:20:59;;;;;;;4.77;3.90;;;7.50;50.10;;;;;;5077168;28;20477;-85
2023/04/03 07:23:26;;;;;;;11.57;4.60;;;7.40;49.80;;;;;;5108524;27;20443;-85
2023/04/03 07:25:53;;;;;;;8.97;4.10;;;7.40;50.20;;;;;;5092701;27;20458;-86
2023/04/03 07:28:23;;;;;;;7.13;3.23;;;7.60;49.90;;;;;;5095329;28;20466;-85
2023/04/03 07:30:54;;;;;;;15.43;6.40;;;7.40;49.60;;;;;;5061962;28;20450;-86
2023/04/03 07:33:23;;;;;;;4.17;2.97;;;7.30;49.40;;;;;;5080516;28;20534;-84
2023/04/03 07:35:50;;;;;;;6.90;4.07;;;7.50;50.10;;;;;;5068497;28;20463;-86
2023/04/03 07:38:18;;;;;;;19.73;8.73;;;7.50;48.50;;;;;;5063827;28;20535;-84
2023/04/03 07:40:47;;;;;;;15.97;7.43;;;7.30;48.90;;;;;;5053614;28;20460;-84
2023/04/03 07:43:15;;;;;;;103.60;33.40;;;7.30;49.90;;;;;;5092320;27;20443;-85
2023/04/03 07:45:44;;;;;;;59.53;23.13;;;7.50;49.40;;;;;;5066609;28;20447;-86
2023/04/03 07:48:12;;;;;;;134.53;40.43;;;7.30;49.90;;;;;;5091957;28;20470;-86
2023/04/03 07:50:41;;;;;;;12.10;6.07;;;7.30;49.10;;;;;;5067892;28;20500;-85
2023/04/03 07:53:08;;;;;;;15.53;6.90;;;7.40;49.40;;;;;;5051825;28;20450;-83
2023/04/03 07:55:40;;;;;;;31.47;11.63;;;7.50;48.70;;;;;;5044343;28;20454;-85
2023/04/03 07:58:07;;;;;;;22.10;10.30;;;7.60;49.10;;;;;;5049450;28;20487;-86
2023/04/03 08:00:34;;;;;;;11.80;7.80;;;7.70;49.30;;;;;;5090034;28;20532;-85
2023/04/03 08:03:03;;;;;;;7.00;4.17;;;7.80;47.50;;;;;;5049963;28;20443;-85
2023/04/03 08:05:30;;;;;;;4.57;3.60;;;7.80;47.50;;;;;;5052626;28;20530;-87
2023/04/03 08:07:57;;;;;;;8.63;3.33;;;7.80;47.40;;;;;;5065640;28;20443;-87
2023/04/03 08:10:24;;;;;;;10.23;7.47;;;8.10;47.50;;;;;;5064479;28;20509;-86
2023/04/03 08:12:51;;;;;;;8.07;6.83;;;8.00;48.20;;;;;;5051870;28;20446;-86
2023/04/03 08:15:18;;;;;;;7.83;3.60;;;8.10;47.80;;;;;;5049059;28;20984;-87
2023/04/03 08:17:45;;;;;;;6.50;3.37;;;8.20;48.50;;;;;;5047636;28;20452;-85
2023/04/03 08:20:13;;;;;;;3.50;2.60;;;8.40;47.30;;;;;;5053881;28;20466;-86
2023/04/03 08:22:40;;;;;;;3.83;2.50;;;8.50;47.50;;;;;;5055818;28;20553;-87
2023/04/03 08:25:08;;;;;;;3.60;3.30;;;8.50;47.40;;;;;;5077254;28;20444;-85
2023/04/03 08:27:35;;;;;;;6.00;3.30;;;8.60;47.20;;;;;;5071710;28;20494;-87
2023/04/03 08:30:03;;;;;;;5.67;3.43;;;8.90;46.50;;;;;;5097995;28;20513;-88
2023/04/03 08:32:31;;;;;;;4.67;4.17;;;9.10;46.60;;;;;;5092245;28;20816;-86
2023/04/03 08:34:58;;;;;;;4.93;3.17;;;8.80;45.70;;;;;;5043649;28;21178;-87
2023/04/03 08:37:26;;;;;;;6.30;3.53;;;8.60;47.10;;;;;;5072407;28;20515;-87
2023/04/03 08:39:54;;;;;;;3.27;2.97;;;8.70;47.10;;;;;;5070045;28;20567;-86
2023/04/03 08:42:36;;;;;;;5.83;3.30;;;8.80;46.20;;;;;;5067725;28;20496;-88
2023/04/03 08:45:11;;;;;;;10.27;4.60;;;8.70;46.30;;;;;;5073540;28;20470;-88
2023/04/03 08:47:42;;;;;;;3.23;2.50;;;8.80;46.10;;;;;;5099106;27;20529;-87
2023/04/03 08:50:14;;;;;;;3.27;2.97;;;8.80;45.60;;;;;;5091869;28;20458;-87
2023/04/03 08:52:46;;;;;;;9.07;4.43;;;8.60;46.00;;;;;;5083933;28;20447;-87
2023/04/03 08:55:23;;;;;;;16.07;8.70;;;8.60;46.80;;;;;;5081117;28;20478;-87
2023/04/03 08:57:52;;;;;;;4.53;3.30;;;8.90;47.30;;;;;;5068024;28;20447;-87
2023/04/03 09:00:23;;;;;;;5.10;3.33;;;9.10;45.80;;;;;;5094976;28;20520;-87
2023/04/03 09:02:52;;;;;;;2.70;2.50;;;9.10;45.50;;;;;;5080226;28;20451;-87
2023/04/03 09:05:21;;;;;;;3.00;2.70;;;9.00;45.20;;;;;;5076294;28;20527;-86
2023/04/03 09:07:56;;;;;;;4.20;2.50;;;9.10;45.80;;;;;;5080874;28;20549;-86
2023/04/03 09:10:28;;;;;;;5.77;2.93;;;9.10;44.80;;;;;;5095336;28;20438;-87
2023/04/03 09:13:02;;;;;;;5.10;3.00;;;9.00;45.90;;;;;;5077700;28;20554;-85
2023/04/03 09:15:29;;;;;;;3.50;2.90;;;9.30;45.20;;;;;;5065416;28;20461;-86
2023/04/03 09:18:03;;;;;;;5.87;2.70;;;9.50;45.10;;;;;;5066736;27;20439;-87
2023/04/03 09:20:40;;;;;;;3.37;2.93;;;9.40;45.70;;;;;;5051155;28;20550;-86
2023/04/03 09:23:25;;;;;;;3.73;2.80;;;9.50;43.80;;;;;;5091394;27;20458;-87
2023/04/03 09:25:58;;;;;;;3.53;3.00;;;9.30;44.60;;;;;;5071578;27;20486;-85
2023/04/03 09:28:26;;;;;;;6.73;3.00;;;9.10;44.90;;;;;;5074946;28;20463;-87
2023/04/03 09:30:53;;;;;;;5.10;2.60;;;9.20;43.40;;;;;;5077472;28;20522;-87
2023/04/03 09:33:22;;;;;;;3.40;3.07;;;9.10;43.70;;;;;;5047422;28;20448;-86
2023/04/03 09:35:50;;;;;;;3.90;2.80;;;9.10;44.00;;;;;;5064304;28;20451;-85
2023/04/03 09:38:24;;;;;;;4.10;3.10;;;9.30;44.50;;;;;;5079130;28;20982;-86
2023/04/03 09:41:02;;;;;;;3.20;2.90;;;9.60;43.80;;;;;;5063836;28;20527;-86
2023/04/03 09:43:31;;;;;;;3.77;2.70;;;9.70;43.70;;;;;;5047776;28;20478;-87
2023/04/03 09:46:17;;;;;;;5.07;2.50;;;9.80;42.80;;;;;;5057591;28;20811;-86
2023/04/03 09:48:52;;;;;;;6.57;2.37;;;9.90;42.90;;;;;;5064844;28;20591;-87
2023/04/03 09:51:19;;;;;;;2.67;2.47;;;10.00;42.20;;;;;;5060107;28;20459;-88
2023/04/03 09:53:47;;;;;;;4.60;2.30;;;10.00;42.30;;;;;;5092655;27;20442;-89
2023/04/03 09:56:26;;;;;;;3.63;2.63;;;9.70;42.20;;;;;;5041987;28;20478;-88
2023/04/03 09:59:09;;;;;;;3.13;2.47;;;9.70;41.70;;;;;;5075349;28;20547;-88
2023/04/03 10:01:38;;;;;;;5.40;2.40;;;9.90;41.00;;;;;;5047789;28;20478;-85
2023/04/03 10:04:11;;;;;;;3.00;2.10;;;10.10;40.70;;;;;;5046544;28;20892;-86
2023/04/03 10:06:46;;;;;;;3.30;2.50;;;10.40;40.40;;;;;;5048814;28;20564;-87
2023/04/03 10:09:21;;;;;;;4.00;2.93;;;10.30;40.20;;;;;;5095364;27;20474;-88
2023/04/03 10:12:04;;;;;;;3.53;2.93;;;10.40;40.90;;;;;;5101070;27;20476;-87
2023/04/03 10:14:32;;;;;;;3.87;2.27;;;10.50;38.20;;;;;;5081532;28;20451;-84
2023/04/03 10:17:11;;;;;;;2.40;2.20;;;10.10;39.10;;;;;;5044175;27;20499;-87
2023/04/03 10:19:43;;;;;;;3.23;2.20;;;10.10;39.80;;;;;;5076178;28;20458;-86
2023/04/03 10:22:19;;;;;;;2.47;2.10;;;10.20;39.90;;;;;;5060235;28;20584;-85
2023/04/03 10:24:57;;;;;;;2.17;1.97;;;10.20;39.20;;;;;;5049613;28;21110;-87
2023/04/03 10:27:33;;;;;;;5.63;2.70;;;10.40;38.40;;;;;;5064847;28;20439;-86
2023/04/03 10:30:10;;;;;;;3.10;2.90;;;10.30;39.40;;;;;;5066106;28;20544;-87
2023/04/03 10:32:53;;;;;;;2.90;2.67;;;10.60;37.70;;;;;;5059445;28;20553;-87
2023/04/03 10:35:32;;;;;;;4.70;3.17;;;11.00;38.00;;;;;;5075000;28;20469;-87
2023/04/03 10:38:08;;;;;;;3.70;2.23;;;11.50;37.90;;;;;;5052869;28;20554;-88
2023/04/03 10:40:46;;;;;;;11.00;6.97;;;11.50;36.70;;;;;;5081942;28;20546;-87
2023/04/03 10:43:22;;;;;;;11.30;6.90;;;11.50;34.60;;;;;;5052603;28;20451;-85
2023/04/03 10:45:56;;;;;;;9.30;6.37;;;11.60;35.90;;;;;;5079077;28;20477;-88
2023/04/03 10:48:47;;;;;;;4.30;3.40;;;11.90;36.00;;;;;;5083431;28;21200;-86
2023/04/03 10:51:23;;;;;;;19.27;12.07;;;11.90;33.80;;;;;;5053619;27;20451;-89
2023/04/03 10:53:57;;;;;;;3.30;3.00;;;11.80;33.00;;;;;;5054028;28;20499;-87
2023/04/03 10:56:33;;;;;;;3.97;2.33;;;11.60;34.00;;;;;;5076285;28;20456;-87
2023/04/03 10:59:19;;;;;;;4.03;2.57;;;11.60;33.20;;;;;;5076352;27;20463;-86
2023/04/03 11:01:49;;;;;;;4.17;2.80;;;11.70;35.30;;;;;;5066904;28;20475;-86
2023/04/03 11:04:20;;;;;;;2.37;2.17;;;11.70;33.80;;;;;;5066841;28;20515;-86
2023/04/03 11:06:53;;;;;;;3.80;2.60;;;11.90;32.90;;;;;;5082896;28;20444;-87
2023/04/03 11:09:25;;;;;;;2.60;2.20;;;12.00;32.80;;;;;;5074236;28;20479;-86
2023/04/03 11:11:59;;;;;;;2.57;2.20;;;11.80;31.20;;;;;;5051752;27;20503;-87
2023/04/03 11:14:28;;;;;;;2.47;2.27;;;11.60;30.70;;;;;;5109261;27;20549;-89
2023/04/03 11:17:08;;;;;;;3.60;2.60;;;11.90;30.50;;;;;;5050838;28;20463;-88
2023/04/03 11:19:39;;;;;;;6.33;4.53;;;11.90;29.90;;;;;;5079423;28;20556;-87
2023/04/03 11:22:14;;;;;;;4.30;2.40;;;12.00;29.60;;;;;;5062425;28;20463;-87
2023/04/03 11:24:43;;;;;;;2.20;2.10;;;12.00;31.30;;;;;;5084573;28;20443;-85
2023/04/03 11:27:22;;;;;;;2.50;2.30;;;12.20;32.30;;;;;;5045379;28;20464;-87
2023/04/03 11:29:50;;;;;;;4.50;2.33;;;12.00;31.60;;;;;;5069118;28;20466;-87
2023/04/03 11:32:33;;;;;;;1.93;1.80;;;12.00;33.10;;;;;;5068779;28;20936;-87
2023/04/03 11:35:03;;;;;;;3.43;2.17;;;12.30;30.70;;;;;;5075908;28;20443;-85
2023/04/03 11:37:35;;;;;;;1.90;1.80;;;12.10;30.20;;;;;;5080832;28;20444;-85
2023/04/03 11:40:08;;;;;;;3.03;2.23;;;12.00;30.40;;;;;;5068646;28;20514;-86
2023/04/03 11:42:39;;;;;;;4.07;2.27;;;11.80;30.20;;;;;;5069422;28;20467;-87
2023/04/03 11:45:31;;;;;;;3.90;1.97;;;11.90;31.50;;;;;;5051368;28;20446;-84
2023/04/03 11:47:59;;;;;;;2.17;1.87;;;11.90;31.00;;;;;;5109261;27;20448;-87
2023/04/03 11:50:41;;;;;;;2.70;2.07;;;12.00;30.80;;;;;;5061930;28;20503;-87
2023/04/03 11:53:35;;;;;;;3.30;2.27;;;11.70;29.80;;;;;;5093683;28;20455;-89
2023/04/03 11:56:18;;;;;;;2.80;2.50;;;11.50;30.40;;;;;;5050862;28;20461;-85
2023/04/03 11:59:18;;;;;;;2.90;1.87;;;11.70;30.30;;;;;;5044683;28;20467;-87
2023/04/03 12:01:47;;;;;;;2.20;2.00;;;11.90;31.70;;;;;;5055504;28;20570;-85
2023/04/03 12:04:15;;;;;;;2.40;2.17;;;12.70;30.00;;;;;;5093038;28;20444;-84
2023/04/03 12:06:56;;;;;;;2.13;1.93;;;13.20;29.70;;;;;;5084116;28;20491;-88
2023/04/03 12:09:35;;;;;;;2.83;2.10;;;13.30;28.70;;;;;;5093540;28;20477;-85
2023/04/03 12:12:24;;;;;;;3.27;1.93;;;13.00;29.30;;;;;;5091012;28;20454;-88
2023/04/03 12:14:53;;;;;;;4.27;2.00;;;12.90;30.60;;;;;;5089810;28;20506;-88
2023/04/03 12:17:25;;;;;;;3.33;1.90;;;12.50;29.70;;;;;;5050012;27;20446;-86
2023/04/03 12:19:52;;;;;;;3.30;2.20;;;12.40;29.80;;;;;;5065400;28;20537;-86
2023/04/03 12:22:20;;;;;;;2.47;1.93;;;12.40;29.40;;;;;;5101562;27;20462;-87
2023/04/03 12:24:50;;;;;;;4.63;2.03;;;12.40;29.40;;;;;;5069484;28;20456;-86
2023/04/03 12:27:26;;;;;;;1.70;1.60;;;12.30;29.90;;;;;;5064854;28;20819;-87
2023/04/03 12:30:06;;;;;;;1.83;1.60;;;12.10;29.30;;;;;;5055915;28;20521;-87
2023/04/03 12:32:49;;;;;;;2.37;1.50;;;12.40;29.50;;;;;;5061329;28;20438;-85
2023/04/03 12:35:25;;;;;;;2.40;1.80;;;12.70;29.00;;;;;;5113779;27;20459;-87
2023/04/03 12:38:33;;;;;;;2.33;1.70;;;12.90;27.50;;;;;;5066713;28;20533;-87
2023/04/03 12:41:17;;;;;;;1.70;1.50;;;13.00;27.30;;;;;;5099960;28;20466;-87
2023/04/03 12:43:56;;;;;;;2.83;1.70;;;12.80;27.10;;;;;;5097433;27;20450;-85
2023/04/03 12:46:27;;;;;;;4.60;2.50;;;12.90;26.90;;;;;;5102354;27;20450;-86
2023/04/03 12:48:58;;;;;;;2.23;1.40;;;13.10;27.90;;;;;;5099699;27;21056;-87
2023/04/03 12:51:35;;;;;;;2.27;2.07;;;13.70;28.40;;;;;;5066619;28;20519;-87
2023/04/03 12:54:05;;;;;;;1.40;1.30;;;13.70;26.20;;;;;;5080012;27;20447;-86
2023/04/03 12:56:34;;;;;;;5.30;1.70;;;13.70;27.90;;;;;;5081260;28;20502;-86
2023/04/03 12:59:16;;;;;;;2.03;1.83;;;14.10;28.80;;;;;;5067240;28;20494;-86
2023/04/03 13:01:44;;;;;;;4.80;2.17;;;14.10;27.70;;;;;;5065534;28;20467;-86
2023/04/03 13:04:13;;;;;;;5.00;1.77;;;13.90;27.60;;;;;;5061141;28;20951;-87
2023/04/03 13:06:42;;;;;;;13.77;4.90;;;13.30;28.70;;;;;;5047558;28;20452;-87
2023/04/03 13:09:21;;;;;;;2.00;1.80;;;13.50;28.90;;;;;;5081692;28;20509;-86
2023/04/03 13:11:51;;;;;;;2.37;1.53;;;13.30;29.30;;;;;;5099453;27;20957;-87